Time;durP1;ratioP1;P1;durP2;ratioP2;P2;SDS_P1;SDS_P2;PMS_P1;PMS_P2;Temp;Humidity;BMP_temperature;BMP_pressure;BME280_temperature;BME280_humidity;BME280_pressure;Samples;Min_cycle;Max_cycle;Signal;HPM_P1;HPM_P2
2022/06/09 00:00:24;;;;;;;1.65;1.42;;;19.70;80.00;;;;;;5013885;28;20504;-72
2022/06/09 00:02:54;;;;;;;2.92;1.40;;;19.70;79.40;;;;;;5012152;28;20581;-73
2022/06/09 00:05:22;;;;;;;1.52;1.40;;;19.70;79.20;;;;;;5009858;28;20734;-73
2022/06/09 00:07:51;;;;;;;2.55;1.60;;;19.70;78.90;;;;;;5012734;28;20060;-73
2022/06/09 00:10:43;;;;;;;1.48;1.30;;;19.70;78.80;;;;;;5012342;28;20037;-73
2022/06/09 00:13:09;;;;;;;3.30;1.30;;;19.70;78.30;;;;;;5014382;28;20041;-73
2022/06/09 00:15:35;;;;;;;1.50;1.40;;;19.70;78.40;;;;;;5017568;28;20038;-73
2022/06/09 00:18:01;;;;;;;2.38;1.30;;;19.70;78.60;;;;;;5016662;28;20095;-72
2022/06/09 00:20:26;;;;;;;2.08;1.35;;;19.60;78.70;;;;;;5014684;28;20030;-72
2022/06/09 00:22:52;;;;;;;2.47;1.30;;;19.60;79.00;;;;;;5014669;28;20029;-73
2022/06/09 00:25:18;;;;;;;1.38;1.27;;;19.60;79.00;;;;;;5014485;28;20540;-72
2022/06/09 00:27:45;;;;;;;1.50;1.40;;;19.60;78.80;;;;;;5014407;28;20489;-72
2022/06/09 00:30:12;;;;;;;2.35;1.23;;;19.50;78.80;;;;;;5018091;28;20120;-72
2022/06/09 00:32:39;;;;;;;1.85;1.30;;;19.50;78.50;;;;;;5015583;28;20100;-72
2022/06/09 00:35:05;;;;;;;1.60;1.20;;;19.50;78.80;;;;;;5015374;28;20033;-71
2022/06/09 00:37:30;;;;;;;2.40;1.15;;;19.50;78.80;;;;;;5013445;28;20592;-72
2022/06/09 00:39:57;;;;;;;2.60;1.20;;;19.50;78.70;;;;;;5015375;28;20124;-72
2022/06/09 00:42:23;;;;;;;2.78;1.10;;;19.50;79.30;;;;;;5015140;28;20493;-72
2022/06/09 00:44:49;;;;;;;3.30;1.10;;;19.40;78.80;;;;;;5014931;28;20037;-71
2022/06/09 00:47:33;;;;;;;2.38;1.40;;;19.40;78.40;;;;;;5008942;28;20040;-72
2022/06/09 00:50:19;;;;;;;1.33;1.15;;;19.40;78.00;;;;;;5016576;28;20095;-71
2022/06/09 00:52:51;;;;;;;1.45;1.20;;;19.40;78.40;;;;;;5014994;28;20045;-72
2022/06/09 00:55:21;;;;;;;3.75;1.20;;;19.40;78.30;;;;;;5013954;28;20485;-72
2022/06/09 00:57:52;;;;;;;2.08;1.30;;;19.40;78.60;;;;;;5016670;28;20592;-71
2022/06/09 01:00:22;;;;;;;1.67;1.10;;;19.30;78.80;;;;;;5014443;28;20152;-71
2022/06/09 01:02:50;;;;;;;1.33;1.20;;;19.30;79.50;;;;;;5011529;28;20029;-72
2022/06/09 01:05:21;;;;;;;1.83;1.30;;;19.30;79.90;;;;;;5013064;28;20140;-72
2022/06/09 01:07:50;;;;;;;1.35;1.10;;;19.30;80.30;;;;;;5014194;28;20061;-72
2022/06/09 01:10:16;;;;;;;2.25;1.35;;;19.20;80.70;;;;;;5012716;28;20041;-72
2022/06/09 01:12:45;;;;;;;1.45;1.35;;;19.20;80.70;;;;;;5017580;28;20022;-72
2022/06/09 01:15:18;;;;;;;2.28;1.20;;;19.20;80.80;;;;;;5017129;28;20030;-72
2022/06/09 01:17:59;;;;;;;1.20;1.10;;;19.10;81.10;;;;;;5014496;28;20045;-72
2022/06/09 01:20:43;;;;;;;1.25;1.08;;;19.10;81.10;;;;;;5012173;28;20037;-72
2022/06/09 01:23:15;;;;;;;2.67;1.20;;;19.00;80.90;;;;;;5009663;28;20041;-72
2022/06/09 01:26:11;;;;;;;1.85;1.27;;;19.00;81.10;;;;;;5015135;28;20418;-72
2022/06/09 01:28:59;;;;;;;2.70;1.08;;;19.00;82.10;;;;;;5014368;28;20047;-72
2022/06/09 01:31:36;;;;;;;1.77;1.20;;;18.90;81.60;;;;;;5015062;28;20065;-72
2022/06/09 01:34:19;;;;;;;1.45;1.17;;;18.80;82.20;;;;;;5014708;28;20059;-71
2022/06/09 01:36:57;;;;;;;2.40;1.20;;;18.80;82.60;;;;;;5011514;28;20041;-72
2022/06/09 01:39:56;;;;;;;3.17;1.40;;;18.70;82.80;;;;;;5011908;28;20041;-71
2022/06/09 01:42:42;;;;;;;1.38;1.25;;;18.70;83.20;;;;;;5012165;28;20511;-72
2022/06/09 01:45:24;;;;;;;1.30;1.08;;;18.60;83.30;;;;;;5017540;28;20096;-72
2022/06/09 01:48:02;;;;;;;1.38;1.02;;;18.50;83.50;;;;;;5013785;28;20040;-72
2022/06/09 01:50:59;;;;;;;1.95;1.10;;;18.50;83.90;;;;;;5012266;28;20041;-71
2022/06/09 01:53:34;;;;;;;3.80;1.25;;;18.40;84.20;;;;;;5015061;28;20045;-71
2022/06/09 01:56:19;;;;;;;2.22;1.13;;;18.40;84.50;;;;;;5012143;28;20041;-72
2022/06/09 01:58:52;;;;;;;1.73;1.25;;;18.40;84.70;;;;;;5015340;28;20491;-72
2022/06/09 02:01:23;;;;;;;2.13;1.23;;;18.30;84.80;;;;;;5007897;28;20842;-72
2022/06/09 02:03:52;;;;;;;2.20;1.10;;;18.30;84.80;;;;;;5012651;28;20560;-71
2022/06/09 02:06:20;;;;;;;2.35;1.17;;;18.20;85.00;;;;;;5008664;28;20064;-72
2022/06/09 02:08:47;;;;;;;2.20;1.40;;;18.10;85.40;;;;;;5008917;28;20571;-72
2022/06/09 02:11:14;;;;;;;1.77;1.40;;;18.00;85.50;;;;;;5014218;28;20045;-72
2022/06/09 02:13:45;;;;;;;1.38;1.00;;;18.00;85.70;;;;;;5011783;28;20058;-72
2022/06/09 02:16:19;;;;;;;2.08;1.10;;;17.90;86.10;;;;;;5011462;28;20199;-72
2022/06/09 02:18:49;;;;;;;2.78;1.73;;;17.70;86.40;;;;;;5018799;28;20041;-71
2022/06/09 02:21:20;;;;;;;2.10;1.20;;;17.70;86.80;;;;;;5013478;28;20486;-72
2022/06/09 02:23:47;;;;;;;1.55;1.38;;;17.60;87.40;;;;;;5006650;28;20038;-72
2022/06/09 02:26:14;;;;;;;3.22;1.50;;;17.50;87.70;;;;;;5010827;28;20587;-72
2022/06/09 02:28:40;;;;;;;1.73;1.42;;;17.40;88.00;;;;;;5010021;28;20040;-72
2022/06/09 02:31:06;;;;;;;2.40;1.20;;;17.40;88.70;;;;;;5009145;28;20037;-71
2022/06/09 02:33:32;;;;;;;1.85;1.23;;;17.30;88.80;;;;;;5012387;28;20528;-71
2022/06/09 02:35:58;;;;;;;1.63;1.48;;;17.30;89.10;;;;;;5007924;28;20034;-71
2022/06/09 02:38:24;;;;;;;4.90;1.70;;;17.20;89.50;;;;;;5010515;28;20048;-72
2022/06/09 02:40:51;;;;;;;1.40;1.30;;;17.20;89.70;;;;;;5008552;28;20060;-72
2022/06/09 02:43:17;;;;;;;1.75;1.10;;;17.20;89.90;;;;;;5010377;28;20037;-72
2022/06/09 02:45:43;;;;;;;2.10;1.52;;;17.10;90.00;;;;;;5010197;28;20405;-72
2022/06/09 02:48:09;;;;;;;2.17;1.42;;;17.10;90.00;;;;;;5013496;28;20026;-72
2022/06/09 02:50:36;;;;;;;1.58;1.10;;;17.00;90.10;;;;;;5012887;28;20401;-72
2022/06/09 02:53:02;;;;;;;2.15;1.15;;;17.00;90.20;;;;;;5008361;28;20026;-72
2022/06/09 02:55:28;;;;;;;1.33;1.23;;;17.00;90.30;;;;;;5011491;28;20026;-71
2022/06/09 02:57:55;;;;;;;1.73;1.30;;;16.90;90.30;;;;;;5009600;28;20338;-72
2022/06/09 03:00:21;;;;;;;2.97;1.20;;;16.90;90.50;;;;;;5012289;28;20080;-72
2022/06/09 03:02:53;;;;;;;3.25;1.30;;;16.90;90.60;;;;;;5014953;28;20026;-72
2022/06/09 03:05:19;;;;;;;1.27;1.00;;;16.90;90.60;;;;;;5016447;28;20033;-72
2022/06/09 03:07:45;;;;;;;3.92;1.20;;;16.80;90.70;;;;;;5012055;28;20083;-71
2022/06/09 03:10:11;;;;;;;2.30;1.30;;;16.90;90.70;;;;;;5014802;28;20033;-72
2022/06/09 03:12:36;;;;;;;1.63;1.30;;;16.90;90.70;;;;;;5012094;28;20029;-71
2022/06/09 03:15:07;;;;;;;3.42;1.30;;;16.80;90.70;;;;;;5008692;28;20792;-72
2022/06/09 03:17:34;;;;;;;1.92;1.30;;;16.80;90.80;;;;;;5012949;28;20246;-72
2022/06/09 03:19:59;;;;;;;1.60;1.17;;;16.80;90.80;;;;;;5015835;28;20051;-72
2022/06/09 03:22:25;;;;;;;1.63;1.40;;;16.80;90.90;;;;;;5013217;28;20470;-71
2022/06/09 03:24:51;;;;;;;2.40;1.30;;;16.80;91.00;;;;;;5015814;28;20120;-71
2022/06/09 03:27:17;;;;;;;2.47;1.20;;;16.90;91.00;;;;;;5009761;28;20018;-71
2022/06/09 03:29:42;;;;;;;2.00;1.25;;;16.90;91.10;;;;;;5013176;28;20729;-72
2022/06/09 03:32:08;;;;;;;1.83;1.45;;;16.90;91.10;;;;;;5009101;28;20029;-72
2022/06/09 03:34:34;;;;;;;3.15;1.30;;;17.00;91.10;;;;;;5013732;28;20025;-72
2022/06/09 03:37:00;;;;;;;1.35;1.25;;;17.10;91.10;;;;;;5017449;28;20033;-72
2022/06/09 03:39:26;;;;;;;3.30;1.55;;;17.30;91.00;;;;;;5016163;28;20043;-72
2022/06/09 03:41:52;;;;;;;2.03;1.23;;;17.50;90.70;;;;;;5008322;28;20037;-71
2022/06/09 03:44:18;;;;;;;1.90;1.20;;;17.70;90.30;;;;;;5009744;28;20037;-72
2022/06/09 03:46:44;;;;;;;3.10;1.65;;;17.90;90.00;;;;;;5010690;28;20431;-72
2022/06/09 03:49:10;;;;;;;2.00;1.50;;;18.10;89.40;;;;;;5016358;28;20022;-72
2022/06/09 03:51:36;;;;;;;1.55;1.15;;;18.20;88.40;;;;;;5015638;28;20112;-71
2022/06/09 03:54:01;;;;;;;3.92;1.10;;;18.40;88.30;;;;;;5017454;28;20438;-71
2022/06/09 03:56:27;;;;;;;3.22;1.50;;;18.50;87.90;;;;;;5012601;28;20476;-72
2022/06/09 03:58:53;;;;;;;1.52;1.20;;;18.60;87.20;;;;;;5009361;28;20040;-71
2022/06/09 04:01:19;;;;;;;1.63;1.25;;;18.70;86.80;;;;;;5013284;28;20021;-72
2022/06/09 04:03:46;;;;;;;1.45;1.00;;;18.80;85.90;;;;;;5010340;28;20116;-72
2022/06/09 04:06:18;;;;;;;1.70;1.50;;;18.90;85.30;;;;;;5017085;28;20025;-71
2022/06/09 04:08:44;;;;;;;2.88;1.30;;;18.90;84.60;;;;;;5015983;28;20718;-72
2022/06/09 04:11:11;;;;;;;1.80;1.20;;;18.90;83.80;;;;;;5017785;28;20512;-72
2022/06/09 04:13:37;;;;;;;1.45;1.08;;;19.00;83.20;;;;;;5014838;28;20043;-71
2022/06/09 04:16:06;;;;;;;1.58;0.98;;;19.00;83.00;;;;;;5012368;28;20037;-71
2022/06/09 04:18:32;;;;;;;1.52;0.98;;;19.10;83.40;;;;;;5010848;28;20042;-72
2022/06/09 04:20:58;;;;;;;1.63;1.15;;;19.10;83.20;;;;;;5015911;28;20091;-71
2022/06/09 04:23:25;;;;;;;2.63;0.93;;;19.10;83.10;;;;;;5018964;28;20034;-71
2022/06/09 04:25:51;;;;;;;2.35;1.00;;;19.10;83.20;;;;;;5013602;28;20025;-72
2022/06/09 04:28:18;;;;;;;0.75;0.75;;;19.10;82.70;;;;;;5011013;28;20025;-72
2022/06/09 04:30:46;;;;;;;2.42;1.48;;;19.20;82.80;;;;;;5014791;28;20025;-72
2022/06/09 04:33:12;;;;;;;1.30;1.20;;;19.20;83.70;;;;;;5011896;28;20121;-72
2022/06/09 04:35:38;;;;;;;2.38;1.30;;;19.20;82.90;;;;;;5011731;28;20026;-73
2022/06/09 04:38:04;;;;;;;2.08;1.25;;;19.20;82.70;;;;;;5010606;28;20046;-72
2022/06/09 04:40:36;;;;;;;1.30;1.10;;;19.30;82.40;;;;;;5018935;28;20655;-72
2022/06/09 04:43:03;;;;;;;3.80;1.38;;;19.20;82.30;;;;;;5009771;28;20038;-72
2022/06/09 04:45:29;;;;;;;2.58;1.00;;;19.30;82.00;;;;;;5008966;28;20204;-72
2022/06/09 04:47:55;;;;;;;1.50;0.85;;;19.30;82.00;;;;;;5014001;28;20116;-72
2022/06/09 04:50:21;;;;;;;1.38;0.90;;;19.30;81.60;;;;;;5010374;28;20034;-72
2022/06/09 04:52:47;;;;;;;1.40;0.80;;;19.30;81.90;;;;;;5010115;28;20033;-72
2022/06/09 04:55:14;;;;;;;1.33;0.70;;;19.30;81.10;;;;;;5007126;28;20758;-72
2022/06/09 04:57:39;;;;;;;2.55;1.13;;;19.30;80.80;;;;;;5011127;28;20690;-72
2022/06/09 05:00:09;;;;;;;1.48;1.10;;;19.30;81.00;;;;;;5013338;28;20095;-72
2022/06/09 05:02:35;;;;;;;1.85;0.80;;;19.30;80.90;;;;;;5008231;28;20037;-72
2022/06/09 05:05:01;;;;;;;1.60;0.98;;;19.30;80.70;;;;;;5009108;28;20038;-72
2022/06/09 05:07:28;;;;;;;3.60;0.80;;;19.30;80.40;;;;;;5008927;28;20482;-72
2022/06/09 05:09:54;;;;;;;2.13;1.02;;;19.30;80.80;;;;;;5008559;28;20137;-70
2022/06/09 05:12:21;;;;;;;1.02;0.70;;;19.30;80.80;;;;;;5018880;28;20389;-72
2022/06/09 05:14:48;;;;;;;4.22;1.17;;;19.40;80.90;;;;;;5014299;28;20029;-73
2022/06/09 05:17:14;;;;;;;1.88;1.05;;;19.40;80.70;;;;;;5009372;28;20083;-73
2022/06/09 05:19:40;;;;;;;1.58;1.10;;;19.40;80.40;;;;;;5010609;28;20949;-69
2022/06/09 05:22:06;;;;;;;3.28;0.90;;;19.50;81.50;;;;;;5012144;28;20042;-73
2022/06/09 05:24:32;;;;;;;0.80;0.60;;;19.40;80.90;;;;;;5009282;28;20032;-73
2022/06/09 05:26:58;;;;;;;2.90;0.77;;;19.40;80.70;;;;;;5016375;28;20036;-72
2022/06/09 05:29:23;;;;;;;1.02;0.80;;;19.40;80.90;;;;;;5015309;28;20034;-73
2022/06/09 05:31:49;;;;;;;1.15;0.90;;;19.40;81.30;;;;;;5011763;28;20032;-72
2022/06/09 05:34:15;;;;;;;0.80;0.77;;;19.40;81.40;;;;;;5009642;28;20029;-72
2022/06/09 05:36:41;;;;;;;1.02;0.82;;;19.40;81.40;;;;;;5012156;28;20508;-72
2022/06/09 05:44:51;;;;;;;3.00;1.23;;;19.40;81.70;;;;;;5015010;28;20455;-67
2022/06/09 05:47:20;;;;;;;2.78;1.42;;;19.50;81.20;;;;;;5011874;28;20179;-73
2022/06/09 05:49:47;;;;;;;2.45;1.55;;;19.50;81.40;;;;;;5008929;28;20037;-73
2022/06/09 05:52:18;;;;;;;2.17;1.48;;;19.60;81.20;;;;;;5013646;28;20042;-73
2022/06/09 05:54:44;;;;;;;1.30;1.20;;;19.70;81.60;;;;;;5012516;28;20029;-73
2022/06/09 05:57:10;;;;;;;2.05;1.55;;;19.70;81.70;;;;;;5010363;28;20029;-73
2022/06/09 05:59:37;;;;;;;3.13;2.03;;;19.80;81.80;;;;;;5005509;28;20026;-73
2022/06/09 06:02:05;;;;;;;2.83;1.30;;;19.90;81.60;;;;;;5005612;28;20066;-73
2022/06/09 06:04:32;;;;;;;3.03;1.50;;;20.00;81.10;;;;;;5011389;28;20037;-74
2022/06/09 06:06:57;;;;;;;3.45;1.45;;;20.10;80.30;;;;;;5011279;28;20049;-74
2022/06/09 06:09:23;;;;;;;1.60;1.30;;;20.20;80.50;;;;;;5010240;28;20038;-74
2022/06/09 06:11:50;;;;;;;2.03;1.25;;;20.30;80.30;;;;;;5009237;28;20557;-74
2022/06/09 06:14:17;;;;;;;2.88;1.45;;;20.30;80.20;;;;;;5014852;28;20124;-73
2022/06/09 06:16:43;;;;;;;2.45;1.55;;;20.40;80.40;;;;;;5011991;28;20132;-73
2022/06/09 06:19:12;;;;;;;3.22;1.70;;;20.40;80.10;;;;;;5012063;28;20029;-73
2022/06/09 06:21:39;;;;;;;2.83;1.23;;;20.50;79.60;;;;;;5009108;28;20022;-72
2022/06/09 06:24:06;;;;;;;3.35;1.48;;;20.60;79.80;;;;;;5014855;28;20029;-73
2022/06/09 06:26:33;;;;;;;4.50;1.60;;;20.70;79.60;;;;;;5013842;28;20037;-73
2022/06/09 06:28:59;;;;;;;2.83;1.50;;;20.70;79.20;;;;;;5015152;28;20424;-73
2022/06/09 06:31:25;;;;;;;3.67;1.80;;;20.60;79.30;;;;;;5011165;28;20030;-73
2022/06/09 06:33:51;;;;;;;2.90;1.73;;;20.50;79.70;;;;;;5015053;28;20034;-73
2022/06/09 06:36:17;;;;;;;3.55;1.83;;;20.40;80.20;;;;;;5016582;28;20033;-71
2022/06/09 06:38:43;;;;;;;5.70;1.80;;;20.20;80.70;;;;;;5019140;28;20390;-74
2022/06/09 06:41:11;;;;;;;4.95;1.60;;;20.10;81.00;;;;;;5009875;28;20504;-72
2022/06/09 06:43:37;;;;;;;3.15;1.60;;;20.10;81.50;;;;;;5015417;28;20028;-72
2022/06/09 06:46:04;;;;;;;2.28;1.45;;;20.00;81.70;;;;;;5013243;28;20527;-73
2022/06/09 06:48:31;;;;;;;3.55;1.60;;;20.00;82.30;;;;;;5009800;28;20034;-74
2022/06/09 06:50:57;;;;;;;1.45;1.00;;;20.10;82.00;;;;;;5014314;28;20033;-73
2022/06/09 06:53:23;;;;;;;4.78;1.60;;;20.10;81.90;;;;;;5015776;28;20044;-72
2022/06/09 06:55:49;;;;;;;3.35;1.58;;;20.10;81.90;;;;;;5011619;28;20390;-74
2022/06/09 06:58:15;;;;;;;4.82;1.60;;;20.20;81.80;;;;;;5016598;28;20038;-73
2022/06/09 07:00:42;;;;;;;2.78;1.40;;;20.20;81.80;;;;;;5016465;28;20043;-73
2022/06/09 07:03:09;;;;;;;2.42;1.33;;;20.30;82.30;;;;;;5017415;28;20063;-73
2022/06/09 07:05:36;;;;;;;6.03;2.05;;;20.30;81.50;;;;;;5016048;28;20033;-73
2022/06/09 07:08:04;;;;;;;3.05;1.63;;;20.40;81.40;;;;;;5012590;28;20084;-73
2022/06/09 07:10:31;;;;;;;5.78;1.63;;;20.40;81.30;;;;;;5012488;28;20034;-73
2022/06/09 07:12:58;;;;;;;3.90;2.05;;;20.40;81.30;;;;;;5009499;28;20533;-73
2022/06/09 07:15:23;;;;;;;3.25;1.80;;;20.40;81.20;;;;;;5011323;28;20048;-73
2022/06/09 07:17:49;;;;;;;3.83;1.58;;;20.40;81.00;;;;;;5016079;28;20026;-73
2022/06/09 07:20:16;;;;;;;2.78;1.58;;;20.40;80.80;;;;;;5009897;28;20041;-73
2022/06/09 07:22:42;;;;;;;4.88;1.50;;;20.40;80.50;;;;;;5016012;28;20402;-73
2022/06/09 07:25:11;;;;;;;3.88;2.10;;;20.50;80.90;;;;;;5012583;28;20054;-74
2022/06/09 07:27:37;;;;;;;6.18;2.20;;;20.50;80.30;;;;;;5010062;28;20052;-73
2022/06/09 07:30:04;;;;;;;7.85;2.05;;;20.50;79.90;;;;;;5013905;28;20030;-73
2022/06/09 07:32:29;;;;;;;3.25;1.65;;;20.50;80.10;;;;;;5018516;28;20051;-73
2022/06/09 07:34:55;;;;;;;4.00;1.58;;;20.60;79.90;;;;;;5008430;28;20030;-73
2022/06/09 07:37:21;;;;;;;3.28;1.73;;;20.70;79.70;;;;;;5017326;28;20038;-73
2022/06/09 07:39:47;;;;;;;2.42;1.30;;;20.70;79.60;;;;;;5011411;28;20053;-73
2022/06/09 07:42:13;;;;;;;3.35;1.45;;;20.80;79.00;;;;;;5015248;28;20489;-73
2022/06/09 07:44:39;;;;;;;2.75;1.35;;;21.00;78.30;;;;;;5013003;28;20029;-73
2022/06/09 07:47:05;;;;;;;3.40;1.42;;;21.10;77.50;;;;;;5016734;28;20030;-73
2022/06/09 07:49:31;;;;;;;2.78;1.52;;;21.20;77.10;;;;;;5015174;28;20044;-73
2022/06/09 07:51:57;;;;;;;2.13;1.63;;;21.30;77.00;;;;;;5011957;28;20068;-73
2022/06/09 07:54:23;;;;;;;6.57;1.48;;;21.40;76.80;;;;;;5010067;28;20069;-73
2022/06/09 07:56:49;;;;;;;2.90;1.50;;;21.40;76.30;;;;;;5010174;28;20033;-73
2022/06/09 07:59:15;;;;;;;2.17;1.40;;;21.40;76.20;;;;;;5014254;28;20023;-73
2022/06/09 08:01:40;;;;;;;3.80;1.52;;;21.40;76.00;;;;;;5014137;28;20087;-73
2022/06/09 08:04:06;;;;;;;2.10;1.40;;;21.30;76.30;;;;;;5018280;28;20029;-74
2022/06/09 08:06:33;;;;;;;2.30;1.58;;;21.20;76.60;;;;;;5015667;28;20484;-73
2022/06/09 08:09:00;;;;;;;2.63;1.27;;;21.20;77.10;;;;;;5008662;28;20037;-73
2022/06/09 08:11:37;;;;;;;3.58;1.50;;;21.10;77.40;;;;;;5012654;28;20060;-73
2022/06/09 08:14:04;;;;;;;3.35;1.42;;;21.10;77.40;;;;;;5008357;28;20046;-73
2022/06/09 08:16:30;;;;;;;3.55;1.42;;;21.10;77.20;;;;;;5013449;28;20029;-73
2022/06/09 08:18:57;;;;;;;2.97;1.35;;;21.10;77.10;;;;;;5015847;28;20034;-73
2022/06/09 08:21:24;;;;;;;2.38;1.20;;;21.10;76.90;;;;;;5011428;28;20115;-73
2022/06/09 08:23:50;;;;;;;2.55;1.15;;;21.20;77.00;;;;;;5011525;28;20547;-73
2022/06/09 08:26:16;;;;;;;4.40;1.10;;;21.20;76.40;;;;;;5013773;28;20025;-73
2022/06/09 08:28:42;;;;;;;0.95;0.90;;;21.20;76.20;;;;;;5013182;28;20497;-73
2022/06/09 08:31:08;;;;;;;2.78;1.17;;;21.20;76.50;;;;;;5014362;28;20129;-73
2022/06/09 08:33:35;;;;;;;1.85;1.05;;;21.30;76.80;;;;;;5017800;28;20711;-73
2022/06/09 08:36:02;;;;;;;1.20;1.13;;;21.40;77.00;;;;;;5015888;28;20148;-73
2022/06/09 08:38:28;;;;;;;1.55;1.10;;;21.50;76.20;;;;;;5013628;28;20037;-73
2022/06/09 08:41:13;;;;;;;2.83;1.30;;;21.60;75.10;;;;;;5012468;28;20152;-73
2022/06/09 08:44:10;;;;;;;2.00;1.40;;;21.70;73.60;;;;;;5012638;28;20040;-73
2022/06/09 08:46:59;;;;;;;2.55;1.10;;;22.00;72.70;;;;;;5017037;28;20054;-73
2022/06/09 08:49:51;;;;;;;2.80;1.63;;;22.30;72.70;;;;;;5014009;28;20204;-73
2022/06/09 08:52:49;;;;;;;3.47;1.60;;;22.40;71.30;;;;;;5007198;28;20066;-74
2022/06/09 08:55:39;;;;;;;2.25;1.50;;;22.50;71.00;;;;;;5007414;28;20026;-73
2022/06/09 08:58:24;;;;;;;2.92;1.60;;;22.40;70.80;;;;;;5008193;28;20025;-73
2022/06/09 09:01:04;;;;;;;2.87;1.40;;;22.30;71.30;;;;;;5005645;28;20022;-73
2022/06/09 09:03:38;;;;;;;1.85;1.20;;;22.20;71.70;;;;;;5009826;28;20051;-73
2022/06/09 09:06:26;;;;;;;1.70;1.50;;;22.10;72.60;;;;;;5011633;28;20033;-74
2022/06/09 09:09:11;;;;;;;2.75;1.30;;;22.00;72.30;;;;;;5009831;28;20667;-74
2022/06/09 09:11:51;;;;;;;3.72;1.65;;;22.00;72.60;;;;;;5009574;28;20061;-73
2022/06/09 09:14:24;;;;;;;2.55;1.73;;;21.90;72.70;;;;;;5009468;28;20044;-74
2022/06/09 09:17:21;;;;;;;1.50;1.40;;;21.80;73.20;;;;;;5008765;28;20029;-73
2022/06/09 09:20:29;;;;;;;2.42;1.60;;;21.80;73.00;;;;;;5010471;28;20190;-74
2022/06/09 09:23:17;;;;;;;2.80;1.83;;;21.90;72.20;;;;;;5015139;28;20071;-74
2022/06/09 09:25:43;;;;;;;2.60;1.48;;;22.00;72.50;;;;;;5017010;28;20867;-74
2022/06/09 09:28:22;;;;;;;3.20;1.77;;;22.20;71.80;;;;;;5013585;28;20037;-74
2022/06/09 09:31:16;;;;;;;3.80;1.90;;;22.40;71.10;;;;;;5009412;28;20166;-73
2022/06/09 09:33:42;;;;;;;6.85;2.28;;;22.50;70.20;;;;;;5010718;28;20052;-73
2022/06/09 09:36:28;;;;;;;5.90;2.28;;;22.80;69.70;;;;;;5013135;28;20033;-74
2022/06/09 09:39:03;;;;;;;4.90;2.53;;;23.00;68.30;;;;;;5012076;28;20110;-73
2022/06/09 09:41:34;;;;;;;;;;;23.40;67.70;;;;;;5013327;28;20042;-73
2022/06/09 09:44:27;;;;;;;4.40;1.73;;;23.70;66.00;;;;;;5006501;28;20337;-74
2022/06/09 09:46:57;;;;;;;5.30;1.75;;;23.80;64.90;;;;;;5012105;28;20064;-74
2022/06/09 09:49:40;;;;;;;3.55;1.80;;;23.90;64.30;;;;;;5010977;28;20037;-74
2022/06/09 09:52:31;;;;;;;3.22;1.77;;;24.00;65.40;;;;;;5014542;28;20124;-74
2022/06/09 09:54:57;;;;;;;5.82;1.80;;;24.20;63.40;;;;;;5007963;28;20092;-74
2022/06/09 09:57:25;;;;;;;3.15;1.90;;;24.50;62.80;;;;;;5011576;28;20041;-74
2022/06/09 09:59:53;;;;;;;5.32;1.92;;;24.80;61.50;;;;;;5011566;28;20125;-74
2022/06/09 10:08:38;;;;;;;5.93;2.15;;;25.30;60.10;;;;;;5008635;28;20029;-74
2022/06/09 10:14:33;;;;;;;5.25;2.08;;;25.70;57.70;;;;;;5014782;28;20422;-73
2022/06/09 10:17:01;;;;;;;4.65;2.65;;;25.80;57.70;;;;;;5011185;28;20041;-74
2022/06/09 10:19:30;;;;;;;4.43;2.10;;;25.90;57.30;;;;;;5016365;28;20054;-74
2022/06/09 10:21:59;;;;;;;3.78;1.98;;;25.90;57.40;;;;;;5011068;28;20029;-74
2022/06/09 10:24:42;;;;;;;6.40;2.03;;;25.80;57.10;;;;;;5014955;28;20038;-74
2022/06/09 10:27:10;;;;;;;3.50;2.00;;;25.40;58.30;;;;;;5015211;28;20044;-73
2022/06/09 10:29:56;;;;;;;2.75;2.05;;;25.00;59.70;;;;;;5014484;28;20143;-74
2022/06/09 10:32:24;;;;;;;3.88;1.90;;;24.80;60.10;;;;;;5012746;28;20026;-74
2022/06/09 10:35:02;;;;;;;3.58;1.60;;;24.90;60.30;;;;;;5013595;28;20398;-74
2022/06/09 10:37:52;;;;;;;2.83;1.80;;;25.10;60.00;;;;;;5013502;28;20036;-74
2022/06/09 10:40:31;;;;;;;2.78;1.65;;;25.10;60.00;;;;;;5012011;28;20044;-74
2022/06/09 10:43:25;;;;;;;5.25;1.95;;;24.80;59.80;;;;;;5016834;28;20034;-73
2022/06/09 10:46:05;;;;;;;4.40;1.70;;;24.50;60.40;;;;;;5016573;28;20036;-73
2022/06/09 10:55:26;;;;;;;5.13;1.83;;;24.60;59.20;;;;;;5011284;28;20092;-73
2022/06/09 10:58:03;;;;;;;2.53;1.70;;;24.80;59.30;;;;;;5012005;28;20533;-73
2022/06/09 11:00:39;;;;;;;1.92;1.60;;;25.00;59.20;;;;;;5013483;28;20120;-73
2022/06/09 11:03:44;;;;;;;1.70;1.60;;;25.10;58.70;;;;;;5014806;28;20045;-73
2022/06/09 11:06:22;;;;;;;1.85;1.60;;;25.10;58.10;;;;;;5015961;28;20021;-73
2022/06/09 11:09:15;;;;;;;2.38;1.60;;;25.20;58.20;;;;;;5010656;28;20755;-73
2022/06/09 11:11:59;;;;;;;4.25;1.98;;;25.30;57.90;;;;;;5014730;28;20026;-73
2022/06/09 11:14:52;;;;;;;4.43;1.65;;;25.60;56.80;;;;;;5009558;28;20069;-73
2022/06/09 11:17:44;;;;;;;3.58;1.60;;;26.00;55.50;;;;;;5009409;28;21010;-73
2022/06/09 11:20:28;;;;;;;2.75;1.77;;;26.20;55.30;;;;;;5010002;28;20707;-73
2022/06/09 11:23:02;;;;;;;6.63;1.80;;;26.50;54.30;;;;;;5015359;28;20034;-73
2022/06/09 11:25:37;;;;;;;3.15;1.55;;;26.70;52.90;;;;;;5010445;28;20911;-73
2022/06/09 11:28:06;;;;;;;2.43;1.60;;;26.70;53.50;;;;;;5015155;28;20034;-73
2022/06/09 11:30:56;;;;;;;5.68;1.92;;;26.60;53.50;;;;;;5009613;28;20496;-73
2022/06/09 11:33:50;;;;;;;3.33;1.88;;;26.20;53.60;;;;;;5016218;28;20038;-73
2022/06/09 11:36:23;;;;;;;4.60;2.17;;;25.60;54.60;;;;;;5010364;28;20030;-73
2022/06/09 11:39:17;;;;;;;4.50;2.40;;;24.90;56.50;;;;;;5010988;28;20423;-73
2022/06/09 11:42:04;;;;;;;3.85;2.15;;;24.40;58.00;;;;;;5015960;28;20076;-73
2022/06/09 11:44:36;;;;;;;3.00;2.50;;;23.90;59.70;;;;;;5009044;28;20032;-73
2022/06/09 11:47:21;;;;;;;4.25;2.80;;;23.60;60.90;;;;;;5016100;28;20133;-73
2022/06/09 11:49:56;;;;;;;5.38;3.08;;;23.40;61.80;;;;;;5009710;28;20018;-72
2022/06/09 11:52:28;;;;;;;5.17;2.87;;;23.10;62.80;;;;;;5013823;28;20072;-73
2022/06/09 11:54:55;;;;;;;4.47;2.75;;;22.90;63.00;;;;;;5012666;28;20398;-73
2022/06/09 11:57:39;;;;;;;3.75;2.40;;;22.70;63.70;;;;;;5009469;28;20045;-73
2022/06/09 12:00:26;;;;;;;6.85;2.72;;;22.60;64.40;;;;;;5009171;28;20133;-73
2022/06/09 12:03:01;;;;;;;5.10;2.65;;;22.60;64.20;;;;;;5008365;28;20022;-73
2022/06/09 12:05:45;;;;;;;5.93;2.75;;;22.50;65.00;;;;;;5014423;28;20109;-73
2022/06/09 12:08:33;;;;;;;2.85;2.38;;;22.40;64.90;;;;;;5010390;28;20033;-73
2022/06/09 12:11:18;;;;;;;3.97;2.63;;;22.30;65.30;;;;;;5014002;28;20087;-74
2022/06/09 12:13:44;;;;;;;4.53;2.75;;;22.30;65.60;;;;;;5014862;28;20037;-74
2022/06/09 12:16:26;;;;;;;4.90;2.40;;;22.40;66.00;;;;;;5012376;28;20088;-74
2022/06/09 12:19:14;;;;;;;4.85;2.75;;;22.30;65.80;;;;;;5013913;28;20068;-74
2022/06/09 12:21:44;;;;;;;3.10;2.30;;;22.40;65.10;;;;;;5012696;28;20033;-73
2022/06/09 12:24:26;;;;;;;5.55;2.17;;;22.40;65.50;;;;;;5007752;28;20052;-74
2022/06/09 12:27:00;;;;;;;2.83;2.25;;;22.40;65.60;;;;;;5014260;28;20030;-74
2022/06/09 12:29:43;;;;;;;5.03;2.42;;;22.50;66.30;;;;;;5013533;28;20102;-74
2022/06/09 12:32:09;;;;;;;7.30;2.40;;;22.60;65.90;;;;;;5012882;28;20033;-74
2022/06/09 12:34:55;;;;;;;3.75;2.35;;;22.60;64.80;;;;;;5011131;28;20100;-73
2022/06/09 12:37:22;;;;;;;;;;;22.70;65.00;;;;;;5012041;28;20037;-74
2022/06/09 12:40:18;;;;;;;3.75;2.20;;;22.70;64.60;;;;;;5011130;28;20627;-74
2022/06/09 12:43:07;;;;;;;5.95;2.33;;;22.70;64.50;;;;;;5011753;28;20127;-73
2022/06/09 12:45:38;;;;;;;6.35;2.47;;;22.70;65.20;;;;;;5013537;28;20485;-74
2022/06/09 12:48:14;;;;;;;5.13;2.22;;;22.80;65.30;;;;;;5009351;28;20045;-72
2022/06/09 12:50:39;;;;;;;3.22;2.00;;;22.70;65.00;;;;;;5016315;28;20025;-73
2022/06/09 12:53:07;;;;;;;4.85;2.42;;;22.80;64.70;;;;;;5012089;28;20048;-72
2022/06/09 12:55:39;;;;;;;3.42;2.38;;;22.90;65.10;;;;;;5011871;28;20852;-73
2022/06/09 12:58:13;;;;;;;6.20;2.72;;;22.90;64.50;;;;;;5007271;28;20508;-73
2022/06/09 13:00:44;;;;;;;3.30;2.30;;;23.00;64.70;;;;;;5017016;28;20129;-72
2022/06/09 13:03:29;;;;;;;3.33;2.40;;;23.00;64.70;;;;;;5010410;28;20076;-67
2022/06/09 13:05:55;;;;;;;4.55;2.13;;;23.00;65.30;;;;;;5010733;28;20040;-69
2022/06/09 13:08:28;;;;;;;6.25;2.30;;;23.10;64.00;;;;;;5010173;28;20484;-69
2022/06/09 13:11:07;;;;;;;4.47;2.20;;;23.00;63.80;;;;;;5010968;28;20037;-69
2022/06/09 13:13:44;;;;;;;4.22;2.25;;;23.00;64.10;;;;;;5012799;28;20029;-68
2022/06/09 13:16:20;;;;;;;2.65;2.25;;;23.00;64.10;;;;;;5012455;28;20037;-69
2022/06/09 13:18:53;;;;;;;6.65;2.58;;;23.10;66.00;;;;;;5007298;28;20030;-69
2022/06/09 13:21:23;;;;;;;6.45;3.15;;;23.20;64.20;;;;;;5006697;28;20071;-69
2022/06/09 13:23:51;;;;;;;4.35;2.78;;;23.20;64.20;;;;;;5008841;28;20489;-69
2022/06/09 13:26:27;;;;;;;4.68;2.70;;;23.30;63.90;;;;;;5009527;28;20103;-69
2022/06/09 13:28:57;;;;;;;5.68;2.75;;;23.40;61.40;;;;;;5009857;28;20135;-68
2022/06/09 13:31:37;;;;;;;4.05;2.20;;;23.50;61.50;;;;;;5009320;28;20409;-70
2022/06/09 13:34:09;;;;;;;3.70;1.98;;;23.60;61.00;;;;;;5008021;28;20038;-70